Latest Coastal Weather Observations for Ulladulla

IDN60701

Issued at 10:21 pm EDT Wednesday 20 February 2019 (issued every 10 minutes, with the page automatically refreshed every 10 minutes)

About coastal observations | Map of coastal stations | Coastal observations for NSW | Marine services | Other Formats
Station Details ID: 069138 Name: ULLADULLA AWS Lat: -35.36 Lon: 150.48 Height: 35.7 m
Data from the previous 72 hours. | See also: Recent months at Ulladulla
Date/Time
EDT
Wind Sea
Height
m
Swell Vis
km
Cloud Weather Temp
°C
Press
hPa
Rain since
9am
mm
Dir  Spd
kts
Gust
kts
Height
m
Period
s
Dir
20/10:00pm SW 7 12 - - - - - - - 18.3 1015.2 0.2
20/09:30pm SSW 11 17 - - - - - - - 18.7 1015.0 0.2
20/09:00pm S 11 16 - - - - - - - 18.6 1014.4 0.0
20/08:30pm SSW 10 17 - - - - - - - 18.7 1013.9 0.0
20/08:00pm SSW 7 11 - - - - - - - 20.5 1013.3 0.0
20/07:30pm SSW 4 7 - - - - - - - 20.4 1012.8 0.0
20/07:00pm S 2 3 - - - - - - - 20.7 1012.4 0.0
20/06:30pm ESE 1 2 - - - - - - - 20.8 1012.0 0.0
20/06:00pm NE 2 3 - - - - - - - 21.1 1011.4 0.0
20/05:30pm NNE 4 6 - - - - - - - 21.0 1011.2 0.0
20/05:00pm ENE 3 5 - - - - - - - 21.2 1011.2 0.0
20/04:30pm SSE 4 6 - - - - - - - 21.6 1011.5 0.0
20/04:00pm SSE 3 5 - - - - - - - 21.0 1011.6 0.0
20/03:30pm S 5 7 - - - - - - - 20.6 1011.8 0.0
20/03:00pm S 5 8 - - - - - - - 20.6 1012.1 0.0
20/02:30pm SSE 5 7 - - - - - - - 21.4 1012.1 0.0
20/02:00pm SSE 4 6 - - - - - - - 21.3 1012.4 0.0
20/01:30pm S 7 8 - - - - - - - 20.1 1012.7 0.0
20/01:00pm S 6 9 - - - - - - - 19.9 1013.1 0.0
20/12:30pm S 9 10 - - - - - - - 19.7 1013.3 0.0
20/12:00pm S 5 7 - - - - - - - 20.4 1013.5 0.0
20/11:30am S 6 8 - - - - - - - 20.6 1013.5 0.0
20/11:00am SSW 6 9 - - - - - - - 20.2 1013.6 0.0
20/10:30am SSW 5 6 - - - - - - - 19.6 1013.6 0.0
20/10:00am SSW 5 9 - - - - - - - 19.2 1013.6 0.0
20/09:30am SW 5 9 - - - - - - - 18.6 1013.6 0.0
20/09:00am SW 5 8 - - - - - - - 18.3 1013.5 0.0
20/08:30am SW 5 10 - - - - - - - 17.9 1013.3 0.0
20/08:00am SW 6 8 - - - - - - - 17.7 1013.1 0.0
20/07:30am SW 6 8 - - - - - - - 17.6 1012.9 0.0
20/07:00am SW 6 9 - - - - - - - 17.4 1012.7 0.0
20/06:30am SW 6 8 - - - - - - - 17.3 1012.5 0.0
20/06:00am SW 6 8 - - - - - - - 17.2 1012.6 0.0
20/05:30am SW 6 9 - - - - - - - 17.3 1012.7 0.0
20/05:00am WSW 5 8 - - - - - - - 17.2 1012.5 0.0
20/04:30am SW 5 9 - - - - - - - 17.2 1012.5 0.0
20/04:00am SW 5 8 - - - - - - - 17.3 1012.6 0.0
20/03:30am SW 5 8 - - - - - - - 17.4 1012.8 0.0
20/03:00am WSW 6 9 - - - - - - - 17.3 1012.9 0.0
20/02:30am WSW 5 7 - - - - - - - 17.2 1013.3 0.0
20/02:00am WSW 4 6 - - - - - - - 17.0 1013.7 0.0
20/01:30am WSW 5 7 - - - - - - - 17.2 1013.8 0.0
20/01:00am WSW 4 7 - - - - - - - 17.5 1014.3 0.0
20/12:30am WSW 5 8 - - - - - - - 17.8 1014.6 0.0
20/12:00am WNW 1 5 - - - - - - - 17.9 1014.7 0.0
 
Date/Time
EDT
Wind Sea
Height
m
Swell Vis
km
Cloud Weather Temp
°C
Press
hPa
Rain since
9am
mm
Dir  Spd
kts
Gust
kts
Height
m
Period
s
Dir
19/11:30pm S 6 9 - - - - - - - 18.5 1014.6 0.0
19/11:00pm SSW 5 8 - - - - - - - 18.5 1014.8 0.0
19/10:30pm SW 5 7 - - - - - - - 18.5 1014.8 0.0
19/10:00pm S 8 13 - - - - - - - 19.6 1014.4 0.0
19/09:30pm SSE 10 14 - - - - - - - 19.4 1014.1 0.0
19/09:00pm S 9 13 - - - - - - - 19.5 1013.7 0.0
19/08:30pm S 9 14 - - - - - - - 19.3 1013.2 0.0
19/08:00pm S 11 16 - - - - - - - 19.3 1012.7 0.0
19/07:30pm SSE 9 14 - - - - - - - 18.8 1012.1 0.0
19/07:00pm SSE 11 17 - - - - - - - 19.0 1011.7 0.0
19/06:30pm SSE 10 15 - - - - - - - 19.1 1011.3 0.0
19/06:00pm SSE 10 16 - - - - - - - 19.5 1011.0 0.0
19/05:30pm SSE 11 16 - - - - - - - 19.3 1010.7 0.0
19/05:00pm S 11 18 - - - - - - - 19.4 1010.3 0.0
19/04:30pm SSE 12 17 - - - - - - - 19.6 1009.9 0.0
19/04:00pm S 13 16 - - - - - - - 19.5 1009.7 0.0
19/03:30pm S 12 18 - - - - - - - 19.7 1009.7 0.0
19/03:00pm S 13 18 - - - - - - - 19.6 1009.7 0.0
19/02:30pm S 13 18 - - - - - - - 19.6 1009.6 0.0
19/02:00pm S 16 20 - - - - - - - 19.6 1009.7 0.0
19/01:30pm S 14 19 - - - - - - - 19.8 1009.5 0.0
19/01:00pm S 15 20 - - - - - - - 19.8 1009.5 0.0
19/12:30pm S 15 19 - - - - - - - 19.6 1009.7 0.0
19/12:00pm S 15 19 - - - - - - - 19.4 1009.9 0.0
19/11:30am S 15 21 - - - - - - - 19.7 1009.9 0.0
19/11:00am S 14 20 - - - - - - - 19.7 1009.7 0.0
19/10:30am S 11 16 - - - - - - - 19.9 1009.2 0.0
19/10:00am S 13 19 - - - - - - - 19.9 1008.8 0.0
19/09:30am S 12 18 - - - - - - - 19.7 1008.7 0.0
19/09:00am SSW 12 17 - - - - - - - 20.1 1008.1 0.4
19/08:30am SSW 11 17 - - - - - - - 19.7 1008.0 0.4
19/08:00am SSW 12 20 - - - - - - - 19.6 1007.6 0.4
19/07:30am SSW 14 20 - - - - - - - 19.5 1007.1 0.4
19/07:00am SSW 14 20 - - - - - - - 19.5 1006.8 0.4
19/06:30am SSW 14 19 - - - - - - - 19.6 1006.3 0.4
19/06:00am SSW 15 22 - - - - - - - 19.7 1006.1 0.4
19/05:30am SSW 15 21 - - - - - - - 19.9 1005.8 0.4
19/05:00am SSW 15 21 - - - - - - - 20.3 1005.5 0.4
19/04:30am SSW 13 19 - - - - - - - 20.8 1005.1 0.4
19/04:09am S 10 19 - - - - - - - 21.6 1004.8 0.4
19/04:00am SSW 3 8 - - - - - - - 22.0 1005.0 0.4
19/03:30am N 6 10 - - - - - - - 22.8 1003.7 0.4
19/03:00am NNW 5 8 - - - - - - - 22.7 1004.1 0.4
19/02:30am NNW 7 10 - - - - - - - 23.0 1004.6 0.4
19/02:00am N 8 14 - - - - - - - 23.3 1004.7 0.4
19/01:30am N 8 12 - - - - - - - 22.3 1005.1 0.4
19/01:00am N 2 5 - - - - - - - 22.2 1005.7 0.4
19/12:30am NNE 4 6 - - - - - - - 22.4 1005.4 0.4
19/12:00am ENE 3 5 - - - - - - - 22.1 1005.5 0.4
 
Date/Time
EDT
Wind Sea
Height
m
Swell Vis
km
Cloud Weather Temp
°C
Press
hPa
Rain since
9am
mm
Dir  Spd
kts
Gust
kts
Height
m
Period
s
Dir
18/11:30pm ENE 2 5 - - - - - - - 22.0 1006.0 0.4
18/11:00pm NNE 3 6 - - - - - - - 22.1 1006.2 0.4
18/10:30pm NNW 4 6 - - - - - - - 22.0 1007.4 0.4
18/10:00pm N 5 15 - - - - - - - 23.2 1007.7 0.4
18/09:30pm WSW 3 6 - - - - - - - 22.2 1007.8 0.4
18/09:00pm SSW 8 13 - - - - - - Recent precip. 21.9 1006.8 0.4
18/08:30pm SW 8 14 - - - - - - - 22.2 1007.4 0.4
18/08:00pm SSE 6 9 - - - - - - - 21.8 1006.5 0.2
18/07:30pm SSE 14 23 - - - - - - - 22.4 1005.9 0.0
18/07:25pm S 18 29 - - - - - - - 22.8 1005.9 0.0
18/07:15pm S 15 28 - - - - - - - 26.4 1004.7 0.0
18/07:02pm NW 8 25 - - - - - - - 24.8 1005.5 0.0
18/07:00pm N 5 16 - - - - - - - 24.1 1005.2 0.0
18/06:30pm NNW 6 9 - - - - - - - 24.3 1002.5 0.0
18/06:00pm NE 9 15 - - - - - - - 24.5 1002.5 0.0
18/05:30pm N 5 9 - - - - - - - 24.8 1002.7 0.0
18/05:00pm NE 9 15 - - - - - - - 24.4 1002.9 0.0
18/04:30pm NNE 8 15 - - - - - - - 24.3 1003.5 0.0
18/04:00pm NE 10 18 - - - - - - - 25.1 1003.5 0.0
18/03:30pm NNE 14 20 - - - - - - - 25.0 1004.0 0.0
18/03:00pm NNE 10 18 - - - - - - - 25.3 1004.6 0.0
18/02:30pm NNE 6 13 - - - - - - - 26.1 1005.2 0.0
18/02:00pm NNE 11 16 - - - - - - - 25.1 1005.4 0.0
18/01:30pm N 6 13 - - - - - - - 25.5 1006.0 0.0
18/01:00pm NNE 10 16 - - - - - - - 24.9 1006.2 0.0
18/12:30pm NNE 7 13 - - - - - - - 25.0 1006.7 0.0
18/12:00pm NNE 10 15 - - - - - - - 24.5 1007.3 0.0
18/11:30am NNE 10 15 - - - - - - - 24.5 1007.7 0.0
18/11:00am NNE 12 16 - - - - - - - 23.6 1008.1 0.0
18/10:30am NE 10 15 - - - - - - - 23.3 1008.3 0.0
18/10:00am NNE 4 7 - - - - - - - 23.5 1008.6 0.0
18/09:30am N 5 9 - - - - - - - 23.3 1008.7 0.0
18/09:00am N 6 9 - - - - - - - 21.6 1008.7 0.0
18/08:30am N 5 7 - - - - - - - 20.6 1008.8 0.0
18/08:00am N 5 6 - - - - - - - 20.1 1008.7 0.0
18/07:30am N 4 6 - - - - - - - 19.3 1008.7 0.0
18/07:00am N 3 5 - - - - - - - 18.4 1008.5 0.0
18/06:30am N 3 4 - - - - - - - 18.1 1008.5 0.0
18/06:00am NNW 2 3 - - - - - - - 18.1 1008.5 0.0
18/05:30am CALM 0 0 - - - - - - - 17.5 1008.3 0.0
18/05:00am CALM 0 0 - - - - - - - 18.5 1008.4 0.0
18/04:30am CALM 0 0 - - - - - - - 18.5 1008.7 0.0
18/04:00am CALM 0 0 - - - - - - - 18.8 1008.9 0.0
18/03:30am CALM 0 0 - - - - - - - 19.0 1009.0 0.0
18/03:00am CALM 0 1 - - - - - - - 19.3 1009.1 0.0
18/02:30am SW 2 3 - - - - - - - 19.4 1009.5 0.0
18/02:00am SW 4 5 - - - - - - - 19.8 1009.8 0.0
18/01:30am WSW 3 5 - - - - - - - 19.7 1010.1 0.0
18/01:00am WSW 4 5 - - - - - - - 19.8 1010.5 0.0
18/12:30am SW 2 3 - - - - - - - 19.9 1010.5 0.0
18/12:00am CALM 0 2 - - - - - - - 20.8 1010.4 0.0
 
Date/Time
EDT
Wind Sea
Height
m
Swell Vis
km
Cloud Weather Temp
°C
Press
hPa
Rain since
9am
mm
Dir  Spd
kts
Gust
kts
Height
m
Period
s
Dir
17/11:30pm N 1 4 - - - - - - - 20.9 1010.4 0.0
17/11:00pm N 1 3 - - - - - - - 21.7 1010.5 0.0
17/10:30pm N 2 3 - - - - - - - 21.9 1010.7 0.0

Other formats

Comma delimited format used in spreadsheet applications
http://www.bom.gov.au/fwo/IDN60701/IDN60701.94938.axf

JavaScript Object Notation format (JSON) in row-major order
http://www.bom.gov.au/fwo/IDN60701/IDN60701.94938.json

Data quality

Most of these data are generated automatically and are frequently updated. Quality checks on data are not normally performed. It is possible for incorrect values to appear. Refer to information at About Latest Weather Observations and please check the disclaimer before using these data.